Time;durP1;ratioP1;P1;durP2;ratioP2;P2;SDS_P1;SDS_P2;PMS_P1;PMS_P2;Temp;Humidity;BMP_temperature;BMP_pressure;BME280_temperature;BME280_humidity;BME280_pressure;Samples;Min_cycle;Max_cycle;Signal;HPM_P1;HPM_P2
2022/12/10 00:01:48;;;;;;;46.38;25.08;;;1.60;99.90;;;;;;4841845;29;20053;-81
2022/12/10 00:04:15;;;;;;;47.47;25.80;;;1.70;99.90;;;;;;4843421;29;20058;-80
2022/12/10 00:06:42;;;;;;;45.67;25.25;;;1.70;99.90;;;;;;4842332;29;20057;-81
2022/12/10 00:09:12;;;;;;;47.03;25.80;;;1.80;99.90;;;;;;4842612;29;20061;-80
2022/12/10 00:11:40;;;;;;;40.85;23.90;;;1.70;99.90;;;;;;4843011;29;20060;-81
2022/12/10 00:14:07;;;;;;;42.00;24.38;;;1.70;99.90;;;;;;4842977;29;20057;-81
2022/12/10 00:16:34;;;;;;;42.38;23.95;;;1.70;99.90;;;;;;4840309;29;20633;-80
2022/12/10 00:19:02;;;;;;;44.55;25.60;;;1.70;99.90;;;;;;4841186;29;20662;-80
2022/12/10 00:21:32;;;;;;;46.03;24.55;;;1.80;99.90;;;;;;4841963;29;20497;-80
2022/12/10 00:23:59;;;;;;;47.13;24.58;;;1.70;99.90;;;;;;4841547;29;20061;-81
2022/12/10 00:26:29;;;;;;;45.53;25.70;;;1.70;99.90;;;;;;4842807;29;20064;-80
2022/12/10 00:28:56;;;;;;;45.22;25.15;;;1.70;99.90;;;;;;4842906;29;20053;-81
2022/12/10 00:31:27;;;;;;;45.15;24.52;;;1.70;99.90;;;;;;4842483;29;20046;-80
2022/12/10 00:33:59;;;;;;;45.30;24.73;;;1.60;99.90;;;;;;4842456;29;20053;-79
2022/12/10 00:36:34;;;;;;;51.60;26.60;;;1.60;99.90;;;;;;4842325;29;20052;-81
2022/12/10 00:39:02;;;;;;;51.13;26.65;;;1.60;99.90;;;;;;4840504;29;20058;-80
2022/12/10 00:41:29;;;;;;;43.53;25.48;;;1.60;99.90;;;;;;4842898;29;20054;-81
2022/12/10 00:43:56;;;;;;;48.92;25.88;;;1.60;99.90;;;;;;4842425;29;20060;-80
2022/12/10 00:46:23;;;;;;;49.00;25.73;;;1.60;99.90;;;;;;4839026;29;20532;-81
2022/12/10 00:48:50;;;;;;;47.00;25.63;;;1.70;99.90;;;;;;4842513;29;20046;-81
2022/12/10 00:51:19;;;;;;;48.45;26.42;;;1.70;99.90;;;;;;4843163;29;20050;-81
2022/12/10 00:53:48;;;;;;;50.07;27.57;;;1.70;99.90;;;;;;4842761;29;20054;-81
2022/12/10 00:56:18;;;;;;;45.25;25.00;;;1.80;99.90;;;;;;4844076;29;20295;-80
2022/12/10 00:58:47;;;;;;;53.72;26.63;;;1.80;99.90;;;;;;4841555;29;20065;-81
2022/12/10 01:01:35;;;;;;;57.13;27.70;;;1.70;99.90;;;;;;4842046;29;20424;-81
2022/12/10 01:04:11;;;;;;;48.22;25.35;;;1.70;99.90;;;;;;4839919;29;20548;-80
2022/12/10 01:06:50;;;;;;;46.70;23.77;;;1.60;99.90;;;;;;4839518;29;20088;-81
2022/12/10 01:09:19;;;;;;;45.83;25.45;;;1.60;99.90;;;;;;4839465;29;20054;-81
2022/12/10 01:11:47;;;;;;;45.35;26.05;;;1.60;99.90;;;;;;4842896;29;20060;-80
2022/12/10 01:14:18;;;;;;;49.58;25.05;;;1.60;99.90;;;;;;4842417;29;20057;-81
2022/12/10 01:16:45;;;;;;;45.55;25.05;;;1.50;99.90;;;;;;4841961;29;20050;-80
2022/12/10 01:19:12;;;;;;;46.92;24.45;;;1.50;99.90;;;;;;4842076;29;20482;-81
2022/12/10 01:21:39;;;;;;;45.17;24.15;;;1.40;99.90;;;;;;4842700;29;20061;-80
2022/12/10 01:24:06;;;;;;;47.40;24.90;;;1.40;99.90;;;;;;4842569;29;20054;-81
2022/12/10 01:26:35;;;;;;;47.00;24.00;;;1.40;99.90;;;;;;4834768;29;20057;-80
2022/12/10 01:29:04;;;;;;;46.05;25.55;;;1.40;99.90;;;;;;4836492;29;20430;-80
2022/12/10 01:31:33;;;;;;;48.10;25.90;;;1.30;99.90;;;;;;4840035;29;20052;-81
2022/12/10 01:34:01;;;;;;;43.47;25.00;;;1.40;99.90;;;;;;4846030;29;20140;-80
2022/12/10 01:36:31;;;;;;;48.75;27.02;;;1.30;99.90;;;;;;4845644;29;20060;-81
2022/12/10 01:38:58;;;;;;;44.63;23.23;;;1.40;99.90;;;;;;4845508;29;20083;-80
2022/12/10 01:41:28;;;;;;;46.25;24.10;;;1.40;99.90;;;;;;4844432;29;20064;-81
2022/12/10 01:43:59;;;;;;;;;;;1.40;99.90;;;;;;4846237;29;20151;-80
2022/12/10 01:46:29;;;;;;;41.83;23.65;;;1.50;99.90;;;;;;4845285;29;19957;-81
2022/12/10 01:48:58;;;;;;;49.53;25.10;;;1.50;99.90;;;;;;4845529;29;20054;-80
2022/12/10 01:51:27;;;;;;;47.45;23.45;;;1.50;99.90;;;;;;4845156;29;20063;-80
2022/12/10 01:53:54;;;;;;;42.83;25.17;;;1.50;99.90;;;;;;4845066;29;20045;-81
2022/12/10 01:56:23;;;;;;;49.53;27.05;;;1.60;99.90;;;;;;4845225;29;20436;-81
2022/12/10 01:58:52;;;;;;;46.13;25.98;;;1.60;99.90;;;;;;4845418;29;20429;-81
2022/12/10 02:01:38;;;;;;;42.03;23.80;;;1.60;99.90;;;;;;4843892;29;20058;-81
2022/12/10 02:04:20;;;;;;;45.65;25.35;;;1.70;99.90;;;;;;4843984;29;20065;-81
2022/12/10 02:06:59;;;;;;;42.90;24.13;;;1.70;99.90;;;;;;4843668;29;20065;-81
2022/12/10 02:09:38;;;;;;;44.35;25.42;;;1.70;99.90;;;;;;4843247;29;20161;-79
2022/12/10 02:12:25;;;;;;;45.40;25.00;;;1.70;99.90;;;;;;4843010;29;20054;-81
2022/12/10 02:15:00;;;;;;;43.75;24.48;;;1.70;99.90;;;;;;4844098;29;20050;-80
2022/12/10 02:17:34;;;;;;;42.80;24.30;;;1.70;99.90;;;;;;4842702;29;20073;-81
2022/12/10 02:20:22;;;;;;;44.28;24.75;;;1.60;99.90;;;;;;4844061;29;20065;-81
2022/12/10 02:23:01;;;;;;;44.80;24.80;;;1.70;99.90;;;;;;4843704;29;20448;-81
2022/12/10 02:25:54;;;;;;;46.13;24.45;;;1.70;99.90;;;;;;4845174;29;20065;-80
2022/12/10 02:28:38;;;;;;;40.28;23.98;;;1.70;99.90;;;;;;4843396;29;20054;-80
2022/12/10 02:31:06;;;;;;;41.05;23.67;;;1.70;99.90;;;;;;4844096;29;20057;-82
2022/12/10 02:33:38;;;;;;;44.05;24.77;;;1.70;99.90;;;;;;4844220;29;20050;-81
2022/12/10 02:36:06;;;;;;;42.00;24.15;;;1.70;99.90;;;;;;4841692;29;20046;-81
2022/12/10 02:38:37;;;;;;;47.10;25.38;;;1.60;99.90;;;;;;4837463;29;20074;-80
2022/12/10 02:41:21;;;;;;;50.63;25.65;;;1.60;99.90;;;;;;4843209;29;20446;-80
2022/12/10 02:43:52;;;;;;;45.65;24.58;;;1.60;99.90;;;;;;4842697;29;20050;-81
2022/12/10 02:46:19;;;;;;;44.58;22.70;;;1.60;99.90;;;;;;4843624;29;20064;-80
2022/12/10 02:48:48;;;;;;;45.38;24.23;;;1.60;99.90;;;;;;4842780;29;20080;-81
2022/12/10 02:51:15;;;;;;;40.30;23.63;;;1.60;99.90;;;;;;4844301;29;20046;-82
2022/12/10 02:53:45;;;;;;;46.65;24.80;;;1.50;99.90;;;;;;4844460;29;20295;-80
2022/12/10 02:56:33;;;;;;;40.67;22.35;;;1.50;99.90;;;;;;4844442;29;20666;-80
2022/12/10 02:59:24;;;;;;;41.22;23.10;;;1.50;99.90;;;;;;4841752;29;20060;-81
2022/12/10 03:02:15;;;;;;;41.83;23.25;;;1.50;99.90;;;;;;4843673;29;20074;-81
2022/12/10 03:04:48;;;;;;;38.80;22.20;;;1.40;99.90;;;;;;4843807;29;20059;-81
2022/12/10 03:07:23;;;;;;;43.83;23.73;;;1.30;99.90;;;;;;4841923;29;20406;-81
2022/12/10 03:09:59;;;;;;;43.88;24.27;;;1.30;99.90;;;;;;4842817;29;20053;-81
2022/12/10 03:12:31;;;;;;;41.55;22.60;;;1.30;99.90;;;;;;4842696;29;20436;-80
2022/12/10 03:15:04;;;;;;;40.55;23.52;;;1.30;99.90;;;;;;4843347;29;20520;-81
2022/12/10 03:17:32;;;;;;;41.58;21.92;;;1.20;99.90;;;;;;4842732;29;20060;-80
2022/12/10 03:20:01;;;;;;;44.40;25.25;;;1.20;99.90;;;;;;4843658;29;20053;-81
2022/12/10 03:22:29;;;;;;;51.08;25.67;;;1.20;99.90;;;;;;4844131;29;20053;-81
2022/12/10 03:24:57;;;;;;;44.67;25.30;;;1.20;99.90;;;;;;4843841;29;20558;-80
2022/12/10 03:27:24;;;;;;;47.45;26.40;;;1.30;99.90;;;;;;4843144;29;20060;-80
2022/12/10 03:29:53;;;;;;;49.95;27.02;;;1.30;99.90;;;;;;4843384;29;20095;-82
2022/12/10 03:32:22;;;;;;;44.40;26.08;;;1.30;99.90;;;;;;4843779;29;20054;-80
2022/12/10 03:34:52;;;;;;;47.20;25.58;;;1.30;99.90;;;;;;4843246;29;20054;-81
2022/12/10 03:37:21;;;;;;;49.10;26.35;;;1.30;99.90;;;;;;4842980;29;20050;-81
2022/12/10 03:39:47;;;;;;;45.53;26.23;;;1.20;99.90;;;;;;4843136;29;20054;-81
2022/12/10 03:42:14;;;;;;;46.88;27.42;;;1.20;99.90;;;;;;4843819;29;20057;-80
2022/12/10 03:44:41;;;;;;;47.65;26.77;;;1.30;99.90;;;;;;4842514;29;20058;-80
2022/12/10 03:47:12;;;;;;;52.30;27.35;;;1.30;99.90;;;;;;4842958;29;20438;-79
2022/12/10 03:49:39;;;;;;;47.80;26.85;;;1.20;99.90;;;;;;4842761;29;20053;-80
2022/12/10 03:52:05;;;;;;;49.40;26.88;;;1.30;99.90;;;;;;4843779;29;20050;-80
2022/12/10 03:54:32;;;;;;;51.25;27.27;;;1.20;99.90;;;;;;4843124;29;20054;-80
2022/12/10 03:56:59;;;;;;;47.00;26.20;;;1.20;99.90;;;;;;4842995;29;20501;-80
2022/12/10 03:59:25;;;;;;;46.92;26.25;;;1.20;99.90;;;;;;4843526;29;20057;-80
2022/12/10 04:01:53;;;;;;;48.95;26.85;;;1.20;99.90;;;;;;4843469;29;20054;-80
2022/12/10 04:04:20;;;;;;;46.13;26.52;;;1.20;99.90;;;;;;4843113;29;20551;-80
2022/12/10 04:06:47;;;;;;;51.75;27.13;;;1.20;99.90;;;;;;4842959;29;20054;-81
2022/12/10 04:09:15;;;;;;;49.80;27.90;;;1.20;99.90;;;;;;4842737;29;20069;-80
2022/12/10 04:11:43;;;;;;;50.17;25.88;;;1.20;99.90;;;;;;4843167;29;20453;-80
2022/12/10 04:16:56;;;;;;;50.00;26.38;;;1.20;99.90;;;;;;4842345;29;20052;-81
2022/12/10 04:19:24;;;;;;;49.90;25.70;;;1.20;99.90;;;;;;4842727;29;20520;-80
2022/12/10 04:27:25;;;;;;;44.22;22.17;;;1.10;99.90;;;;;;4842390;29;20061;-81
2022/12/10 04:29:53;;;;;;;42.78;24.85;;;1.10;99.90;;;;;;4842658;29;20059;-80
2022/12/10 04:32:21;;;;;;;47.05;23.27;;;1.10;99.90;;;;;;4842653;29;20056;-80
2022/12/10 04:34:48;;;;;;;34.92;19.65;;;1.10;99.90;;;;;;4842690;29;20584;-81
2022/12/10 04:37:16;;;;;;;46.35;24.50;;;1.00;99.90;;;;;;4842389;29;20050;-80
2022/12/10 04:39:43;;;;;;;44.97;24.45;;;1.00;99.90;;;;;;4842489;29;20106;-80
2022/12/10 04:42:10;;;;;;;41.53;23.63;;;0.90;99.90;;;;;;4842837;29;20065;-80
2022/12/10 04:44:37;;;;;;;44.47;23.48;;;0.90;99.90;;;;;;4842614;29;20057;-81
2022/12/10 04:47:06;;;;;;;46.83;25.45;;;0.90;99.90;;;;;;4838050;29;20058;-80
2022/12/10 04:49:32;;;;;;;40.08;22.67;;;0.90;99.90;;;;;;4837816;29;20536;-81
2022/12/10 04:51:59;;;;;;;44.35;25.23;;;0.80;99.90;;;;;;4840208;29;20054;-81
2022/12/10 04:54:27;;;;;;;46.10;22.63;;;0.90;99.90;;;;;;4838742;29;20053;-80
2022/12/10 04:56:54;;;;;;;42.63;23.60;;;0.80;99.90;;;;;;4842632;29;20054;-81
2022/12/10 04:59:21;;;;;;;46.50;25.02;;;0.80;99.90;;;;;;4842736;29;20054;-81
2022/12/10 05:01:47;;;;;;;47.63;25.15;;;0.80;99.90;;;;;;4842831;29;20057;-81
2022/12/10 05:04:16;;;;;;;46.28;25.92;;;0.90;99.90;;;;;;4842524;29;20064;-81
2022/12/10 05:06:47;;;;;;;51.63;25.98;;;0.90;99.90;;;;;;4842724;29;20124;-81
2022/12/10 05:09:14;;;;;;;51.78;26.77;;;0.90;99.90;;;;;;4845722;29;20049;-80
2022/12/10 05:11:42;;;;;;;46.90;25.23;;;0.90;99.90;;;;;;4845868;29;20054;-81
2022/12/10 05:14:11;;;;;;;51.08;26.20;;;0.90;99.90;;;;;;4845850;29;20054;-81
2022/12/10 05:16:38;;;;;;;53.22;28.75;;;0.90;99.90;;;;;;4845594;29;20050;-81
2022/12/10 05:19:05;;;;;;;53.75;27.17;;;0.90;99.90;;;;;;4846059;29;20057;-80
2022/12/10 05:24:17;;;;;;;57.47;29.13;;;1.00;99.90;;;;;;4846099;29;20497;-81
2022/12/10 05:26:44;;;;;;;54.95;28.10;;;1.00;99.90;;;;;;4845810;29;20581;-80
2022/12/10 05:29:12;;;;;;;49.38;28.17;;;1.00;99.90;;;;;;4845356;29;20046;-81
2022/12/10 05:31:39;;;;;;;53.05;27.45;;;1.00;99.90;;;;;;4845572;29;20594;-80
2022/12/10 05:34:08;;;;;;;50.63;26.17;;;1.00;99.90;;;;;;4845800;29;20056;-81
2022/12/10 05:36:34;;;;;;;56.10;29.75;;;1.00;99.90;;;;;;4845574;29;20056;-81
2022/12/10 05:39:02;;;;;;;53.70;30.33;;;1.00;99.90;;;;;;4845367;29;20122;-81
2022/12/10 05:41:33;;;;;;;55.45;28.15;;;1.00;99.90;;;;;;4845910;29;20050;-80
2022/12/10 05:44:00;;;;;;;48.50;27.52;;;1.00;99.90;;;;;;4845321;29;20054;-80
2022/12/10 05:46:30;;;;;;;51.42;28.15;;;1.00;99.90;;;;;;4845181;29;20049;-81
2022/12/10 05:48:58;;;;;;;50.83;27.15;;;1.00;99.90;;;;;;4842983;29;20409;-81
2022/12/10 05:51:28;;;;;;;48.20;27.13;;;1.00;99.90;;;;;;4845556;29;20050;-80
2022/12/10 05:53:57;;;;;;;55.13;28.58;;;1.10;99.90;;;;;;4845479;29;20416;-80
2022/12/10 05:56:25;;;;;;;54.80;28.33;;;1.00;99.90;;;;;;4845125;29;20046;-81
2022/12/10 05:58:54;;;;;;;52.60;27.73;;;1.00;99.90;;;;;;4845244;29;20053;-81
2022/12/10 06:01:25;;;;;;;59.67;30.90;;;1.00;99.90;;;;;;4845157;29;20060;-80
2022/12/10 06:03:52;;;;;;;55.55;30.35;;;1.00;99.90;;;;;;4842310;29;20054;-81
2022/12/10 06:06:23;;;;;;;61.25;30.75;;;1.10;99.90;;;;;;4842783;29;20050;-81
2022/12/10 06:08:51;;;;;;;58.95;30.00;;;1.10;99.90;;;;;;4844799;29;20061;-80
2022/12/10 06:11:18;;;;;;;56.88;31.90;;;1.20;99.90;;;;;;4845680;29;20057;-80
2022/12/10 06:13:45;;;;;;;65.95;32.58;;;1.20;99.90;;;;;;4843800;29;20087;-81
2022/12/10 06:16:17;;;;;;;64.90;31.88;;;1.30;99.90;;;;;;4843971;29;20087;-80
2022/12/10 06:18:44;;;;;;;60.20;32.10;;;1.20;99.90;;;;;;4844857;29;20124;-81
2022/12/10 06:21:14;;;;;;;60.13;31.80;;;1.20;99.90;;;;;;4844723;29;20058;-80
2022/12/10 06:23:42;;;;;;;67.03;32.92;;;1.20;99.90;;;;;;4843603;29;20058;-81
2022/12/10 06:26:21;;;;;;;67.40;32.30;;;1.10;99.90;;;;;;4844802;29;20060;-81
2022/12/10 06:28:48;;;;;;;60.28;30.98;;;1.10;99.90;;;;;;4844747;29;20572;-80
2022/12/10 06:31:15;;;;;;;56.55;30.40;;;1.10;99.90;;;;;;4844962;29;20057;-81
2022/12/10 06:33:43;;;;;;;64.18;30.48;;;1.10;99.90;;;;;;4844888;29;20065;-81
2022/12/10 06:36:11;;;;;;;61.45;31.52;;;1.10;99.90;;;;;;4843986;29;20050;-80
2022/12/10 06:38:38;;;;;;;69.50;32.45;;;1.10;99.90;;;;;;4844300;29;20080;-80
2022/12/10 06:41:08;;;;;;;68.47;33.10;;;1.10;99.90;;;;;;4843920;29;20504;-80
2022/12/10 06:43:35;;;;;;;62.88;31.55;;;1.10;99.90;;;;;;4844349;29;20592;-80
2022/12/10 06:46:11;;;;;;;58.65;29.13;;;1.10;99.90;;;;;;4843362;29;20053;-80
2022/12/10 06:48:38;;;;;;;57.28;30.13;;;1.00;99.90;;;;;;4843136;29;20420;-80
2022/12/10 06:51:05;;;;;;;61.53;30.70;;;1.10;99.90;;;;;;4844067;29;20054;-80
2022/12/10 06:53:34;;;;;;;66.72;34.67;;;1.00;99.90;;;;;;4841291;29;20145;-81
2022/12/10 06:56:02;;;;;;;62.00;31.75;;;1.10;99.90;;;;;;4843197;29;20049;-80
2022/12/10 06:58:31;;;;;;;65.30;33.03;;;1.10;99.90;;;;;;4841223;29;20053;-80
2022/12/10 07:01:10;;;;;;;71.95;33.00;;;1.10;99.90;;;;;;4841114;29;20428;-79
2022/12/10 07:03:37;;;;;;;61.25;31.42;;;1.10;99.90;;;;;;4843215;29;20080;-79
2022/12/10 07:06:06;;;;;;;58.08;29.80;;;1.10;99.90;;;;;;4843775;29;20050;-80
2022/12/10 07:08:33;;;;;;;64.68;31.60;;;1.10;99.90;;;;;;4843951;29;20081;-80
2022/12/10 07:11:07;;;;;;;62.53;32.13;;;1.10;99.90;;;;;;4841113;29;20489;-80
2022/12/10 07:13:34;;;;;;;63.80;30.88;;;1.10;99.90;;;;;;4828322;29;20054;-80
2022/12/10 07:16:01;;;;;;;61.95;32.97;;;1.10;99.90;;;;;;4826192;29;20050;-80
2022/12/10 07:18:27;;;;;;;68.13;32.05;;;1.10;99.90;;;;;;4836401;29;20077;-79
2022/12/10 07:20:54;;;;;;;62.22;32.85;;;1.10;99.90;;;;;;4840005;29;20061;-79
2022/12/10 07:23:21;;;;;;;62.15;32.10;;;1.20;99.90;;;;;;4838470;29;20520;-79
2022/12/10 07:25:48;;;;;;;65.40;32.90;;;1.20;99.90;;;;;;4836406;29;20057;-79
2022/12/10 07:28:16;;;;;;;61.83;32.55;;;1.20;99.90;;;;;;4834665;29;20138;-79
2022/12/10 07:30:42;;;;;;;62.38;33.08;;;1.20;99.90;;;;;;4842111;29;20077;-80
2022/12/10 07:33:09;;;;;;;64.88;32.83;;;1.20;99.90;;;;;;4844216;29;20054;-80
2022/12/10 07:35:39;;;;;;;64.60;31.02;;;1.30;99.90;;;;;;4843709;29;20053;-78
2022/12/10 07:38:14;;;;;;;66.80;33.00;;;1.30;99.90;;;;;;4826291;29;20054;-79
2022/12/10 07:40:40;;;;;;;70.65;35.17;;;1.30;99.90;;;;;;4843073;29;20087;-79
2022/12/10 07:43:07;;;;;;;63.75;32.50;;;1.30;99.90;;;;;;4844034;29;20058;-80
2022/12/10 07:45:34;;;;;;;65.65;35.17;;;1.40;99.90;;;;;;4843906;29;20054;-80
2022/12/10 07:48:00;;;;;;;63.92;32.53;;;1.50;99.90;;;;;;4843180;29;20466;-80
2022/12/10 07:50:27;;;;;;;64.38;31.50;;;1.50;99.90;;;;;;4843401;29;20050;-80
2022/12/10 07:52:54;;;;;;;53.88;29.95;;;1.50;99.90;;;;;;4843614;29;20449;-80
2022/12/10 07:55:20;;;;;;;60.95;32.55;;;1.40;99.90;;;;;;4838940;29;20050;-80
2022/12/10 07:57:47;;;;;;;55.95;31.02;;;1.50;99.90;;;;;;4842851;29;20061;-80
2022/12/10 08:00:14;;;;;;;54.53;30.20;;;1.40;99.90;;;;;;4839909;29;20454;-79
2022/12/10 08:02:40;;;;;;;61.58;32.15;;;1.40;99.90;;;;;;4828610;29;20054;-80
2022/12/10 08:05:08;;;;;;;56.70;29.38;;;1.40;99.90;;;;;;4842894;29;20058;-80
2022/12/10 08:07:34;;;;;;;55.38;29.88;;;1.40;99.90;;;;;;4843251;29;20054;-80
2022/12/10 08:10:01;;;;;;;56.60;29.23;;;1.40;99.90;;;;;;4843082;29;20058;-80
2022/12/10 08:12:28;;;;;;;56.67;29.70;;;1.40;99.90;;;;;;4841245;29;20137;-80
2022/12/10 08:14:55;;;;;;;52.53;27.85;;;1.40;99.90;;;;;;4842865;29;20050;-80
2022/12/10 08:17:21;;;;;;;53.08;27.00;;;1.30;99.90;;;;;;4843150;29;20050;-81
2022/12/10 08:19:50;;;;;;;51.33;28.48;;;1.30;99.90;;;;;;4843462;29;20050;-81
2022/12/10 08:22:17;;;;;;;53.83;28.17;;;1.30;99.90;;;;;;4843244;29;20062;-80
2022/12/10 08:24:43;;;;;;;59.83;29.70;;;1.30;99.90;;;;;;4843029;29;20065;-80
2022/12/10 08:27:10;;;;;;;54.50;28.58;;;1.40;99.90;;;;;;4842813;29;20061;-80
2022/12/10 08:29:36;;;;;;;51.00;26.88;;;1.40;99.90;;;;;;4842971;29;20049;-81
2022/12/10 08:32:03;;;;;;;54.33;29.13;;;1.40;99.90;;;;;;4843076;29;20054;-80
2022/12/10 08:34:30;;;;;;;52.97;27.38;;;1.40;99.90;;;;;;4839765;29;20057;-81
2022/12/10 08:36:57;;;;;;;61.13;28.90;;;1.50;99.90;;;;;;4842790;29;20069;-80
2022/12/10 08:39:23;;;;;;;52.05;28.42;;;1.50;99.90;;;;;;4830834;29;20137;-80
2022/12/10 08:41:50;;;;;;;59.38;29.25;;;1.40;99.90;;;;;;4825814;29;20055;-80
2022/12/10 08:44:17;;;;;;;56.63;28.50;;;1.40;99.90;;;;;;4844056;29;20448;-80
2022/12/10 08:46:44;;;;;;;56.67;27.85;;;1.40;99.90;;;;;;4843594;29;20062;-80
2022/12/10 08:49:11;;;;;;;52.55;28.23;;;1.50;99.90;;;;;;4843236;29;20436;-81
2022/12/10 08:51:38;;;;;;;55.38;28.58;;;1.50;99.90;;;;;;4845196;29;20420;-80
2022/12/10 08:54:05;;;;;;;61.80;29.00;;;1.50;99.90;;;;;;4844970;29;20053;-80
2022/12/10 08:56:31;;;;;;;66.05;30.25;;;1.50;99.90;;;;;;4842111;29;20053;-80
2022/12/10 08:58:58;;;;;;;63.10;30.63;;;1.50;99.90;;;;;;4845255;29;20058;-80
2022/12/10 09:01:25;;;;;;;61.28;29.02;;;1.50;99.90;;;;;;4841460;29;20084;-80
2022/12/10 09:03:51;;;;;;;63.60;30.23;;;1.50;99.90;;;;;;4842297;29;20426;-78
2022/12/10 09:06:20;;;;;;;62.55;29.75;;;1.50;99.90;;;;;;4843846;29;20408;-77
2022/12/10 09:08:47;;;;;;;76.05;33.13;;;1.50;99.90;;;;;;4832812;29;20484;-77
2022/12/10 09:11:18;;;;;;;74.57;32.22;;;1.50;99.90;;;;;;4842164;29;20053;-77
2022/12/10 09:13:45;;;;;;;68.78;33.63;;;1.60;99.90;;;;;;4842652;29;20053;-80
2022/12/10 09:16:12;;;;;;;68.97;31.48;;;1.60;99.90;;;;;;4842863;29;20065;-80
2022/12/10 09:18:39;;;;;;;70.40;32.53;;;1.60;99.90;;;;;;4838679;29;20136;-81
2022/12/10 09:21:08;;;;;;;71.75;31.85;;;1.60;99.90;;;;;;4846425;29;20057;-80
2022/12/10 09:23:34;;;;;;;75.05;32.95;;;1.60;99.90;;;;;;4845139;29;20060;-80
2022/12/10 09:26:06;;;;;;;73.85;31.20;;;1.60;99.90;;;;;;4845636;29;20058;-80
2022/12/10 09:28:32;;;;;;;73.50;31.85;;;1.70;99.90;;;;;;4845616;29;20066;-80
2022/12/10 09:31:00;;;;;;;83.95;34.55;;;1.60;99.90;;;;;;4842562;29;20053;-80
2022/12/10 09:33:28;;;;;;;78.70;33.03;;;1.60;99.90;;;;;;4844457;29;20053;-80
2022/12/10 09:35:55;;;;;;;73.82;34.78;;;1.60;99.90;;;;;;4842774;29;20439;-80
2022/12/10 09:38:22;;;;;;;81.90;34.25;;;1.60;99.90;;;;;;4842950;29;20140;-80
2022/12/10 09:41:02;;;;;;;77.15;33.92;;;1.70;99.90;;;;;;4844082;29;20060;-81
2022/12/10 09:43:43;;;;;;;81.68;30.85;;;1.70;99.90;;;;;;4840653;29;20069;-80
2022/12/10 09:46:31;;;;;;;83.00;33.10;;;1.60;99.90;;;;;;4842408;29;20122;-79
2022/12/10 09:48:57;;;;;;;73.40;32.25;;;1.60;99.90;;;;;;4844092;29;20058;-81
2022/12/10 09:51:36;;;;;;;85.43;33.13;;;1.70;99.90;;;;;;4841166;29;20535;-80
2022/12/10 09:54:25;;;;;;;78.63;32.42;;;1.70;99.90;;;;;;4841326;29;20057;-80
2022/12/10 09:56:53;;;;;;;75.18;32.00;;;1.70;99.90;;;;;;4836219;29;20058;-80
2022/12/10 09:59:24;;;;;;;73.30;31.48;;;1.70;99.90;;;;;;4843582;29;20050;-80
2022/12/10 10:02:19;;;;;;;71.70;31.08;;;1.80;99.90;;;;;;4839359;29;20136;-79
2022/12/10 10:04:47;;;;;;;83.63;33.65;;;1.80;99.90;;;;;;4831514;29;20114;-85
2022/12/10 10:07:34;;;;;;;79.03;32.95;;;1.80;99.90;;;;;;4846313;29;20144;-81
2022/12/10 10:10:05;;;;;;;78.53;32.63;;;1.80;99.90;;;;;;4840223;29;20077;-80
2022/12/10 10:12:33;;;;;;;73.93;30.88;;;1.80;99.90;;;;;;4837674;29;20086;-81
2022/12/10 10:15:13;;;;;;;84.63;32.17;;;1.90;99.90;;;;;;4841095;29;20512;-79
2022/12/10 10:17:45;;;;;;;61.35;29.50;;;1.90;99.90;;;;;;4838551;29;20049;-80
2022/12/10 10:20:13;;;;;;;80.85;33.40;;;1.90;99.90;;;;;;4840940;29;20054;-79
2022/12/10 10:22:40;;;;;;;74.25;32.45;;;1.90;99.90;;;;;;4835726;29;20126;-80
2022/12/10 10:25:18;;;;;;;72.25;32.17;;;2.00;99.90;;;;;;4838878;29;20050;-81
2022/12/10 10:27:45;;;;;;;70.13;31.35;;;2.00;99.90;;;;;;4836286;29;20069;-80
2022/12/10 10:30:20;;;;;;;69.35;33.05;;;2.00;99.90;;;;;;4840493;29;20050;-79
2022/12/10 10:32:50;;;;;;;74.60;32.42;;;2.10;99.90;;;;;;4844297;29;20057;-79
2022/12/10 10:35:30;;;;;;;76.40;32.95;;;2.10;99.90;;;;;;4841573;29;20050;-79
2022/12/10 10:38:00;;;;;;;74.60;34.35;;;2.20;99.90;;;;;;4843327;29;20052;-78
2022/12/10 10:40:42;;;;;;;75.85;34.22;;;2.20;99.90;;;;;;4841480;29;20046;-79
2022/12/10 10:43:18;;;;;;;78.65;33.63;;;2.30;99.90;;;;;;4841731;29;20412;-78
2022/12/10 10:45:49;;;;;;;69.93;33.75;;;2.20;99.90;;;;;;4843776;29;20061;-78
2022/12/10 10:48:22;;;;;;;71.20;33.20;;;2.30;99.90;;;;;;4836550;29;20050;-80
2022/12/10 10:50:55;;;;;;;74.50;32.17;;;2.20;99.90;;;;;;4837099;29;20054;-79
2022/12/10 10:53:44;;;;;;;68.25;31.67;;;2.20;99.90;;;;;;4841707;29;20059;-79
2022/12/10 10:56:20;;;;;;;78.57;32.20;;;2.30;99.90;;;;;;4839179;29;20053;-79
2022/12/10 10:58:59;;;;;;;67.22;31.65;;;2.20;99.90;;;;;;4841072;29;20113;-79
2022/12/10 11:01:50;;;;;;;65.60;32.38;;;2.10;99.90;;;;;;4838034;29;20050;-79
2022/12/10 11:04:23;;;;;;;73.47;31.92;;;2.10;99.90;;;;;;4838471;29;20057;-79
2022/12/10 11:06:53;;;;;;;77.50;31.77;;;2.20;99.90;;;;;;4832663;29;20058;-79
2022/12/10 11:09:26;;;;;;;66.15;30.90;;;2.20;99.90;;;;;;4842331;29;20060;-79
2022/12/10 11:12:02;;;;;;;67.07;32.42;;;2.20;99.90;;;;;;4836514;29;20050;-79
2022/12/10 11:14:31;;;;;;;60.78;30.00;;;2.30;99.90;;;;;;4843452;29;20046;-79
2022/12/10 11:17:11;;;;;;;69.68;32.10;;;2.30;99.90;;;;;;4838836;29;20049;-79
2022/12/10 11:20:01;;;;;;;69.82;32.42;;;2.30;99.90;;;;;;4841938;29;20046;-79
2022/12/10 11:22:30;;;;;;;69.30;31.88;;;2.30;99.90;;;;;;4840532;29;20079;-80
2022/12/10 11:24:58;;;;;;;69.70;32.58;;;2.30;99.90;;;;;;4841380;29;20057;-79
2022/12/10 11:27:46;;;;;;;72.75;32.97;;;2.40;99.90;;;;;;4835625;29;20592;-79
2022/12/10 11:30:25;;;;;;;66.55;29.75;;;2.40;99.90;;;;;;4841853;29;20535;-79
2022/12/10 11:33:03;;;;;;;64.55;31.48;;;2.40;99.90;;;;;;4840798;29;20057;-79
2022/12/10 11:36:06;;;;;;;66.40;32.47;;;2.40;99.90;;;;;;4839187;29;20074;-79
2022/12/10 11:38:47;;;;;;;67.47;31.33;;;2.40;99.90;;;;;;4839397;29;20539;-79
2022/12/10 11:41:22;;;;;;;66.15;32.70;;;2.40;99.90;;;;;;4838747;29;20133;-78
2022/12/10 11:44:15;;;;;;;67.82;33.45;;;2.40;99.90;;;;;;4839612;29;20054;-79
2022/12/10 11:46:54;;;;;;;74.90;32.65;;;2.40;99.90;;;;;;4835751;29;20049;-80
2022/12/10 11:49:44;;;;;;;82.40;35.15;;;2.30;99.90;;;;;;4837246;29;20069;-80
2022/12/10 11:52:41;;;;;;;74.88;32.35;;;2.40;99.90;;;;;;4836934;29;20049;-79
2022/12/10 11:55:30;;;;;;;72.07;32.45;;;2.40;99.90;;;;;;4841894;29;20053;-77
2022/12/10 11:58:13;;;;;;;74.72;34.47;;;2.40;99.90;;;;;;4838359;29;20583;-79
2022/12/10 12:00:52;;;;;;;87.40;37.38;;;2.40;99.90;;;;;;4837962;29;20050;-77
2022/12/10 12:03:52;;;;;;;74.85;34.67;;;2.40;99.90;;;;;;4838591;29;20053;-79
2022/12/10 12:06:51;;;;;;;65.70;32.83;;;2.30;99.90;;;;;;4837187;29;20053;-79
2022/12/10 12:09:48;;;;;;;77.03;35.42;;;2.40;99.90;;;;;;4824989;29;20052;-78
2022/12/10 12:12:29;;;;;;;74.43;33.00;;;2.40;99.90;;;;;;4833646;29;20050;-79
2022/12/10 12:15:08;;;;;;;68.53;31.95;;;2.40;99.90;;;;;;4826781;29;20050;-79
2022/12/10 12:17:41;;;;;;;76.90;33.17;;;2.50;99.90;;;;;;4840939;29;20060;-80
2022/12/10 12:20:17;;;;;;;69.68;33.45;;;2.40;99.90;;;;;;4838650;29;20070;-79
2022/12/10 12:22:48;;;;;;;63.55;31.05;;;2.40;99.90;;;;;;4841241;29;20046;-77
2022/12/10 12:25:27;;;;;;;67.75;33.40;;;2.40;99.90;;;;;;4842252;29;20492;-77
2022/12/10 12:28:02;;;;;;;66.43;31.50;;;2.40;99.90;;;;;;4840309;29;20058;-77
2022/12/10 12:30:33;;;;;;;63.55;32.58;;;2.50;99.90;;;;;;4836980;29;20049;-78
2022/12/10 12:33:20;;;;;;;62.70;31.85;;;2.60;99.90;;;;;;4840200;29;20133;-77
2022/12/10 12:35:55;;;;;;;64.65;32.20;;;2.60;99.90;;;;;;4839370;29;20064;-79
2022/12/10 12:39:00;;;;;;;63.65;31.73;;;2.60;99.90;;;;;;4842187;29;20072;-79
2022/12/10 12:41:55;;;;;;;62.58;30.73;;;2.60;99.90;;;;;;4832122;29;20504;-79
2022/12/10 12:45:01;;;;;;;57.72;29.42;;;2.60;99.90;;;;;;4835662;29;20065;-80
2022/12/10 12:47:28;;;;;;;57.22;29.20;;;2.60;99.90;;;;;;4839113;29;20054;-82
2022/12/10 12:49:58;;;;;;;59.10;28.75;;;2.60;99.90;;;;;;4835396;29;20062;-79
2022/12/10 12:52:46;;;;;;;61.55;29.42;;;2.50;99.90;;;;;;4831736;29;20057;-78
2022/12/10 12:55:31;;;;;;;58.78;30.25;;;2.50;99.90;;;;;;4839065;29;20050;-80
2022/12/10 12:58:22;;;;;;;60.40;29.08;;;2.50;99.90;;;;;;4840260;29;20054;-79
2022/12/10 13:00:52;;;;;;;59.63;29.48;;;2.60;99.90;;;;;;4842083;29;20050;-80
2022/12/10 13:03:39;;;;;;;62.88;28.90;;;2.60;99.90;;;;;;4842574;29;20058;-79
2022/12/10 13:06:22;;;;;;;53.83;28.20;;;2.60;99.90;;;;;;4840690;29;20161;-77
2022/12/10 13:08:51;;;;;;;53.90;28.95;;;2.60;99.90;;;;;;4840788;29;20054;-79
2022/12/10 13:11:46;;;;;;;52.37;28.47;;;2.70;99.90;;;;;;4839464;29;20051;-79
2022/12/10 13:14:33;;;;;;;60.63;28.92;;;2.70;99.90;;;;;;4839969;29;20321;-78